sensor_id;sensor_type;location;lat;lon;timestamp;temperature;humidity
14709;DHT22;7445;50.774;4.944;2023-01-29T07:43:37;0.00;99.90
14709;DHT22;7445;50.774;4.944;2023-01-29T07:46:04;0.10;99.90
14709;DHT22;7445;50.774;4.944;2023-01-29T07:48:29;0.10;99.90
14709;DHT22;7445;50.774;4.944;2023-01-29T07:50:56;0.10;99.90
14709;DHT22;7445;50.774;4.944;2023-01-29T07:53:22;0.20;99.90
14709;DHT22;7445;50.774;4.944;2023-01-29T07:55:48;0.20;99.90
14709;DHT22;7445;50.774;4.944;2023-01-29T07:58:13;0.20;99.90
14709;DHT22;7445;50.774;4.944;2023-01-29T08:00:41;0.30;99.90
14709;DHT22;7445;50.774;4.944;2023-01-29T08:03:16;0.30;99.90
14709;DHT22;7445;50.774;4.944;2023-01-29T08:06:06;0.30;99.90
14709;DHT22;7445;50.774;4.944;2023-01-29T08:08:37;0.40;99.90
14709;DHT22;7445;50.774;4.944;2023-01-29T08:11:29;0.40;99.90
14709;DHT22;7445;50.774;4.944;2023-01-29T08:14:06;0.40;99.90
14709;DHT22;7445;50.774;4.944;2023-01-29T08:17:02;0.40;99.90
14709;DHT22;7445;50.774;4.944;2023-01-29T08:19:39;0.40;99.90
14709;DHT22;7445;50.774;4.944;2023-01-29T08:22:13;0.40;99.90
14709;DHT22;7445;50.774;4.944;2023-01-29T08:24:45;0.50;99.90
14709;DHT22;7445;50.774;4.944;2023-01-29T08:27:31;0.50;99.90
14709;DHT22;7445;50.774;4.944;2023-01-29T08:29:56;0.50;99.90
14709;DHT22;7445;50.774;4.944;2023-01-29T08:32:22;0.60;99.90
14709;DHT22;7445;50.774;4.944;2023-01-29T08:34:53;0.60;99.90
14709;DHT22;7445;50.774;4.944;2023-01-29T08:37:20;0.70;99.90
14709;DHT22;7445;50.774;4.944;2023-01-29T08:39:46;0.70;99.90
14709;DHT22;7445;50.774;4.944;2023-01-29T08:42:11;0.80;99.90
14709;DHT22;7445;50.774;4.944;2023-01-29T08:44:39;0.80;99.90
14709;DHT22;7445;50.774;4.944;2023-01-29T08:47:06;0.80;99.90
14709;DHT22;7445;50.774;4.944;2023-01-29T08:49:37;0.80;99.90
14709;DHT22;7445;50.774;4.944;2023-01-29T08:52:20;0.80;99.90
14709;DHT22;7445;50.774;4.944;2023-01-29T08:54:45;0.90;99.90
14709;DHT22;7445;50.774;4.944;2023-01-29T08:57:14;0.90;99.90
14709;DHT22;7445;50.774;4.944;2023-01-29T08:59:45;0.90;99.90
14709;DHT22;7445;50.774;4.944;2023-01-29T09:02:14;0.90;99.90
14709;DHT22;7445;50.774;4.944;2023-01-29T09:04:55;1.00;99.90
14709;DHT22;7445;50.774;4.944;2023-01-29T09:07:33;1.00;99.90
14709;DHT22;7445;50.774;4.944;2023-01-29T09:10:10;1.00;99.90
14709;DHT22;7445;50.774;4.944;2023-01-29T09:12:42;1.10;99.90
14709;DHT22;7445;50.774;4.944;2023-01-29T09:15:22;1.10;99.90
14709;DHT22;7445;50.774;4.944;2023-01-29T09:17:51;1.20;99.90
14709;DHT22;7445;50.774;4.944;2023-01-29T09:20:23;1.30;99.90
14709;DHT22;7445;50.774;4.944;2023-01-29T09:22:51;1.30;99.90
14709;DHT22;7445;50.774;4.944;2023-01-29T09:25:20;1.40;99.90
14709;DHT22;7445;50.774;4.944;2023-01-29T09:27:56;1.40;99.90
14709;DHT22;7445;50.774;4.944;2023-01-29T09:30:42;1.50;99.90
14709;DHT22;7445;50.774;4.944;2023-01-29T09:33:27;1.60;99.90
14709;DHT22;7445;50.774;4.944;2023-01-29T09:36:14;1.60;99.90
14709;DHT22;7445;50.774;4.944;2023-01-29T09:38:39;1.70;99.90
14709;DHT22;7445;50.774;4.944;2023-01-29T09:41:40;1.70;99.90
14709;DHT22;7445;50.774;4.944;2023-01-29T09:44:39;1.80;99.90
14709;DHT22;7445;50.774;4.944;2023-01-29T09:47:13;1.70;99.90
14709;DHT22;7445;50.774;4.944;2023-01-29T09:49:46;1.80;99.90
14709;DHT22;7445;50.774;4.944;2023-01-29T09:52:16;1.70;99.90
14709;DHT22;7445;50.774;4.944;2023-01-29T09:57:59;1.80;99.90
14709;DHT22;7445;50.774;4.944;2023-01-29T10:15:00;2.10;99.90
14709;DHT22;7445;50.774;4.944;2023-01-29T10:23:33;2.20;99.90
14709;DHT22;7445;50.774;4.944;2023-01-29T10:26:11;2.30;99.90
14709;DHT22;7445;50.774;4.944;2023-01-29T10:28:57;2.30;99.90
14709;DHT22;7445;50.774;4.944;2023-01-29T10:31:32;2.20;99.90
14709;DHT22;7445;50.774;4.944;2023-01-29T10:34:26;2.30;99.90
14709;DHT22;7445;50.774;4.944;2023-01-29T10:37:00;2.30;99.90
14709;DHT22;7445;50.774;4.944;2023-01-29T10:39:29;2.40;99.90
14709;DHT22;7445;50.774;4.944;2023-01-29T10:42:45;2.30;99.90
14709;DHT22;7445;50.774;4.944;2023-01-29T10:45:48;2.40;99.90
14709;DHT22;7445;50.774;4.944;2023-01-29T10:51:57;2.40;99.90
14709;DHT22;7445;50.774;4.944;2023-01-29T10:54:59;2.40;99.90
14709;DHT22;7445;50.774;4.944;2023-01-29T10:58:02;2.40;99.90
14709;DHT22;7445;50.774;4.944;2023-01-29T11:00:39;2.50;99.90
14709;DHT22;7445;50.774;4.944;2023-01-29T11:03:32;2.50;99.90
14709;DHT22;7445;50.774;4.944;2023-01-29T11:06:01;2.50;99.90
14709;DHT22;7445;50.774;4.944;2023-01-29T11:11:51;2.60;99.90
14709;DHT22;7445;50.774;4.944;2023-01-29T11:17:24;2.70;99.90
14709;DHT22;7445;50.774;4.944;2023-01-29T11:20:26;2.80;99.90
14709;DHT22;7445;50.774;4.944;2023-01-29T11:23:31;2.80;99.90
14709;DHT22;7445;50.774;4.944;2023-01-29T11:26:20;2.80;99.90
14709;DHT22;7445;50.774;4.944;2023-01-29T11:29:28;2.80;99.90
14709;DHT22;7445;50.774;4.944;2023-01-29T11:32:10;2.80;99.90
14709;DHT22;7445;50.774;4.944;2023-01-29T11:35:16;2.80;99.90
14709;DHT22;7445;50.774;4.944;2023-01-29T11:38:24;2.80;99.90
14709;DHT22;7445;50.774;4.944;2023-01-29T11:41:32;2.80;99.90
14709;DHT22;7445;50.774;4.944;2023-01-29T11:46:31;2.90;99.90
14709;DHT22;7445;50.774;4.944;2023-01-29T11:49:53;3.00;99.90
14709;DHT22;7445;50.774;4.944;2023-01-29T11:52:42;3.00;99.90
14709;DHT22;7445;50.774;4.944;2023-01-29T11:55:23;3.00;99.90
14709;DHT22;7445;50.774;4.944;2023-01-29T11:58:21;3.00;99.90
14709;DHT22;7445;50.774;4.944;2023-01-29T12:18:34;3.30;99.90
14709;DHT22;7445;50.774;4.944;2023-01-29T12:28:03;3.70;99.90
14709;DHT22;7445;50.774;4.944;2023-01-29T12:31:14;3.60;99.90
14709;DHT22;7445;50.774;4.944;2023-01-29T12:37:12;3.60;99.90
14709;DHT22;7445;50.774;4.944;2023-01-29T12:40:42;3.70;99.90
14709;DHT22;7445;50.774;4.944;2023-01-29T12:43:16;3.70;99.90
14709;DHT22;7445;50.774;4.944;2023-01-29T12:45:45;3.80;99.90
14709;DHT22;7445;50.774;4.944;2023-01-29T12:48:35;3.80;99.90
14709;DHT22;7445;50.774;4.944;2023-01-29T12:51:13;3.90;99.90
14709;DHT22;7445;50.774;4.944;2023-01-29T12:53:58;4.00;99.90
14709;DHT22;7445;50.774;4.944;2023-01-29T12:59:31;3.90;99.90
14709;DHT22;7445;50.774;4.944;2023-01-29T13:12:00;4.00;99.90
14709;DHT22;7445;50.774;4.944;2023-01-29T13:14:08;4.00;99.90
14709;DHT22;7445;50.774;4.944;2023-01-29T13:16:42;4.10;99.90
14709;DHT22;7445;50.774;4.944;2023-01-29T13:21:58;4.20;99.90
14709;DHT22;7445;50.774;4.944;2023-01-29T13:24:26;4.30;99.90
14709;DHT22;7445;50.774;4.944;2023-01-29T13:26:55;4.30;99.90
14709;DHT22;7445;50.774;4.944;2023-01-29T13:29:27;4.40;99.90
14709;DHT22;7445;50.774;4.944;2023-01-29T13:31:57;4.40;99.90
14709;DHT22;7445;50.774;4.944;2023-01-29T13:34:24;4.40;99.90
14709;DHT22;7445;50.774;4.944;2023-01-29T13:36:56;4.40;99.90
14709;DHT22;7445;50.774;4.944;2023-01-29T13:39:30;4.30;99.90
14709;DHT22;7445;50.774;4.944;2023-01-29T13:41:59;4.30;99.90
14709;DHT22;7445;50.774;4.944;2023-01-29T13:44:34;4.30;99.90
14709;DHT22;7445;50.774;4.944;2023-01-29T13:47:45;4.10;99.90
14709;DHT22;7445;50.774;4.944;2023-01-29T13:58:15;4.20;99.90
14709;DHT22;7445;50.774;4.944;2023-01-29T15:32:49;3.80;99.90
14709;DHT22;7445;50.774;4.944;2023-01-29T15:35:26;3.80;99.90
14709;DHT22;7445;50.774;4.944;2023-01-29T15:38:18;3.70;99.90
14709;DHT22;7445;50.774;4.944;2023-01-29T15:41:22;3.70;99.90
14709;DHT22;7445;50.774;4.944;2023-01-29T15:43:57;3.70;99.90
14709;DHT22;7445;50.774;4.944;2023-01-29T15:46:39;3.70;99.90
14709;DHT22;7445;50.774;4.944;2023-01-29T15:49:18;3.70;99.90
14709;DHT22;7445;50.774;4.944;2023-01-29T15:51:46;3.60;99.90
14709;DHT22;7445;50.774;4.944;2023-01-29T15:54:14;3.60;99.90
14709;DHT22;7445;50.774;4.944;2023-01-29T16:00:31;3.60;99.90
14709;DHT22;7445;50.774;4.944;2023-01-29T16:03:21;3.60;99.90
14709;DHT22;7445;50.774;4.944;2023-01-29T16:05:51;3.60;99.90
14709;DHT22;7445;50.774;4.944;2023-01-29T16:08:59;3.60;99.90
14709;DHT22;7445;50.774;4.944;2023-01-29T16:11:25;3.50;99.90
14709;DHT22;7445;50.774;4.944;2023-01-29T16:14:13;3.50;99.90
14709;DHT22;7445;50.774;4.944;2023-01-29T16:17:09;3.40;99.90
14709;DHT22;7445;50.774;4.944;2023-01-29T16:19:43;3.40;99.90
14709;DHT22;7445;50.774;4.944;2023-01-29T16:22:39;3.40;99.90
14709;DHT22;7445;50.774;4.944;2023-01-29T16:25:28;3.40;99.90
14709;DHT22;7445;50.774;4.944;2023-01-29T16:28:39;3.40;99.90
14709;DHT22;7445;50.774;4.944;2023-01-29T16:31:10;3.40;99.90
14709;DHT22;7445;50.774;4.944;2023-01-29T16:34:34;3.40;99.90
14709;DHT22;7445;50.774;4.944;2023-01-29T16:37:40;3.40;99.90
14709;DHT22;7445;50.774;4.944;2023-01-29T16:40:35;3.40;99.90
14709;DHT22;7445;50.774;4.944;2023-01-29T16:46:17;3.40;99.90
14709;DHT22;7445;50.774;4.944;2023-01-29T16:52:18;3.30;99.90
14709;DHT22;7445;50.774;4.944;2023-01-29T16:54:47;3.40;99.90
14709;DHT22;7445;50.774;4.944;2023-01-29T16:57:34;3.30;99.90
14709;DHT22;7445;50.774;4.944;2023-01-29T17:00:04;3.40;99.90
14709;DHT22;7445;50.774;4.944;2023-01-29T17:02:37;3.30;99.90
14709;DHT22;7445;50.774;4.944;2023-01-29T17:05:30;3.20;99.90
14709;DHT22;7445;50.774;4.944;2023-01-29T17:11:45;3.20;99.90
14709;DHT22;7445;50.774;4.944;2023-01-29T17:14:18;3.30;99.90
14709;DHT22;7445;50.774;4.944;2023-01-29T17:17:12;3.30;99.90
14709;DHT22;7445;50.774;4.944;2023-01-29T17:20:16;3.30;99.90
14709;DHT22;7445;50.774;4.944;2023-01-29T17:22:42;3.20;99.90
14709;DHT22;7445;50.774;4.944;2023-01-29T17:25:16;3.20;99.90
14709;DHT22;7445;50.774;4.944;2023-01-29T17:27:48;3.20;99.90
14709;DHT22;7445;50.774;4.944;2023-01-29T17:30:20;3.20;99.90
14709;DHT22;7445;50.774;4.944;2023-01-29T17:32:50;3.20;99.90
14709;DHT22;7445;50.774;4.944;2023-01-29T17:35:20;3.30;99.90
14709;DHT22;7445;50.774;4.944;2023-01-29T17:37:45;3.30;99.90
14709;DHT22;7445;50.774;4.944;2023-01-29T17:43:02;3.20;99.90
14709;DHT22;7445;50.774;4.944;2023-01-29T17:45:31;3.20;99.90
14709;DHT22;7445;50.774;4.944;2023-01-29T17:48:33;3.30;99.90
14709;DHT22;7445;50.774;4.944;2023-01-29T17:51:18;3.20;99.90
14709;DHT22;7445;50.774;4.944;2023-01-29T17:53:51;3.30;99.90
14709;DHT22;7445;50.774;4.944;2023-01-29T17:56:26;3.20;99.90
14709;DHT22;7445;50.774;4.944;2023-01-29T17:58:59;3.30;99.90
14709;DHT22;7445;50.774;4.944;2023-01-29T18:01:35;3.30;99.90
14709;DHT22;7445;50.774;4.944;2023-01-29T18:04:02;3.20;99.90
14709;DHT22;7445;50.774;4.944;2023-01-29T18:06:31;3.20;99.90
14709;DHT22;7445;50.774;4.944;2023-01-29T18:09:17;3.20;99.90
14709;DHT22;7445;50.774;4.944;2023-01-29T18:11:49;3.20;99.90
14709;DHT22;7445;50.774;4.944;2023-01-29T18:14:19;3.20;99.90
14709;DHT22;7445;50.774;4.944;2023-01-29T18:16:45;3.20;99.90
14709;DHT22;7445;50.774;4.944;2023-01-29T18:19:24;3.20;99.90
14709;DHT22;7445;50.774;4.944;2023-01-29T18:21:52;3.20;99.90
14709;DHT22;7445;50.774;4.944;2023-01-29T18:24:23;3.20;99.90
14709;DHT22;7445;50.774;4.944;2023-01-29T18:26:50;3.20;99.90
14709;DHT22;7445;50.774;4.944;2023-01-29T18:29:31;3.20;99.90
14709;DHT22;7445;50.774;4.944;2023-01-29T18:31:58;3.20;99.90
14709;DHT22;7445;50.774;4.944;2023-01-29T18:34:23;3.20;99.90
14709;DHT22;7445;50.774;4.944;2023-01-29T18:36:54;3.30;99.90
14709;DHT22;7445;50.774;4.944;2023-01-29T18:39:22;3.20;99.90
14709;DHT22;7445;50.774;4.944;2023-01-29T18:41:47;3.20;99.90
14709;DHT22;7445;50.774;4.944;2023-01-29T18:44:14;3.30;99.90
14709;DHT22;7445;50.774;4.944;2023-01-29T18:46:41;3.20;99.90
14709;DHT22;7445;50.774;4.944;2023-01-29T18:49:06;3.20;99.90
14709;DHT22;7445;50.774;4.944;2023-01-29T18:51:33;3.20;99.90
14709;DHT22;7445;50.774;4.944;2023-01-29T18:54:09;3.30;99.90
14709;DHT22;7445;50.774;4.944;2023-01-29T18:56:35;3.30;99.90
14709;DHT22;7445;50.774;4.944;2023-01-29T18:59:02;3.30;99.90
14709;DHT22;7445;50.774;4.944;2023-01-29T19:01:32;3.30;99.90
14709;DHT22;7445;50.774;4.944;2023-01-29T19:04:01;3.20;99.90
14709;DHT22;7445;50.774;4.944;2023-01-29T19:06:28;3.20;99.90
14709;DHT22;7445;50.774;4.944;2023-01-29T19:08:56;3.10;99.90
14709;DHT22;7445;50.774;4.944;2023-01-29T19:11:24;3.10;99.90
14709;DHT22;7445;50.774;4.944;2023-01-29T19:13:50;3.10;99.90
14709;DHT22;7445;50.774;4.944;2023-01-29T19:16:16;3.10;99.90
14709;DHT22;7445;50.774;4.944;2023-01-29T19:18:42;3.10;99.90
14709;DHT22;7445;50.774;4.944;2023-01-29T19:21:16;3.20;99.90
14709;DHT22;7445;50.774;4.944;2023-01-29T19:23:43;3.10;99.90
14709;DHT22;7445;50.774;4.944;2023-01-29T19:26:09;3.10;99.90
14709;DHT22;7445;50.774;4.944;2023-01-29T19:28:36;3.10;99.90
14709;DHT22;7445;50.774;4.944;2023-01-29T19:31:02;3.00;99.90
14709;DHT22;7445;50.774;4.944;2023-01-29T19:33:36;3.00;99.90
14709;DHT22;7445;50.774;4.944;2023-01-29T19:36:04;3.00;99.90
14709;DHT22;7445;50.774;4.944;2023-01-29T19:38:33;3.00;99.90
14709;DHT22;7445;50.774;4.944;2023-01-29T19:41:03;3.00;99.90
14709;DHT22;7445;50.774;4.944;2023-01-29T19:43:30;3.00;99.90
14709;DHT22;7445;50.774;4.944;2023-01-29T19:46:00;3.00;99.90
14709;DHT22;7445;50.774;4.944;2023-01-29T19:48:29;3.00;99.90
14709;DHT22;7445;50.774;4.944;2023-01-29T19:51:00;3.10;99.90
14709;DHT22;7445;50.774;4.944;2023-01-29T19:53:30;3.10;99.90
14709;DHT22;7445;50.774;4.944;2023-01-29T19:56:04;3.10;99.90
14709;DHT22;7445;50.774;4.944;2023-01-29T19:58:39;3.10;99.90
14709;DHT22;7445;50.774;4.944;2023-01-29T20:01:13;3.20;99.90
14709;DHT22;7445;50.774;4.944;2023-01-29T20:03:40;3.10;99.90
14709;DHT22;7445;50.774;4.944;2023-01-29T20:06:15;3.20;99.90
14709;DHT22;7445;50.774;4.944;2023-01-29T20:08:47;3.10;99.90
14709;DHT22;7445;50.774;4.944;2023-01-29T20:11:13;3.20;99.90
14709;DHT22;7445;50.774;4.944;2023-01-29T20:13:59;3.10;99.90
14709;DHT22;7445;50.774;4.944;2023-01-29T20:16:30;3.10;99.90
14709;DHT22;7445;50.774;4.944;2023-01-29T20:18:58;3.10;99.90
14709;DHT22;7445;50.774;4.944;2023-01-29T20:21:25;3.10;99.90
14709;DHT22;7445;50.774;4.944;2023-01-29T20:23:51;3.10;99.90
14709;DHT22;7445;50.774;4.944;2023-01-29T20:26:18;3.10;99.90
14709;DHT22;7445;50.774;4.944;2023-01-29T20:29:03;3.10;99.90
14709;DHT22;7445;50.774;4.944;2023-01-29T20:31:29;3.10;99.90
14709;DHT22;7445;50.774;4.944;2023-01-29T20:33:57;3.00;99.90
14709;DHT22;7445;50.774;4.944;2023-01-29T20:36:22;3.10;99.90
14709;DHT22;7445;50.774;4.944;2023-01-29T20:38:53;3.10;99.90
14709;DHT22;7445;50.774;4.944;2023-01-29T20:41:19;3.00;99.90
14709;DHT22;7445;50.774;4.944;2023-01-29T20:43:46;3.10;99.90
14709;DHT22;7445;50.774;4.944;2023-01-29T20:46:14;3.10;99.90
14709;DHT22;7445;50.774;4.944;2023-01-29T20:48:39;3.10;99.90
14709;DHT22;7445;50.774;4.944;2023-01-29T20:51:14;3.10;99.90
14709;DHT22;7445;50.774;4.944;2023-01-29T20:53:40;3.10;99.90
14709;DHT22;7445;50.774;4.944;2023-01-29T20:56:08;3.10;99.90
14709;DHT22;7445;50.774;4.944;2023-01-29T20:58:34;3.10;99.90
14709;DHT22;7445;50.774;4.944;2023-01-29T21:01:11;3.10;99.90
14709;DHT22;7445;50.774;4.944;2023-01-29T21:03:43;3.10;99.90
14709;DHT22;7445;50.774;4.944;2023-01-29T21:06:20;3.20;99.90
14709;DHT22;7445;50.774;4.944;2023-01-29T21:08:55;3.20;99.90
14709;DHT22;7445;50.774;4.944;2023-01-29T21:11:23;3.20;99.90
14709;DHT22;7445;50.774;4.944;2023-01-29T21:13:50;3.30;99.90
14709;DHT22;7445;50.774;4.944;2023-01-29T21:16:22;3.30;99.90
14709;DHT22;7445;50.774;4.944;2023-01-29T21:18:54;3.30;99.90
14709;DHT22;7445;50.774;4.944;2023-01-29T21:21:35;3.30;99.90
14709;DHT22;7445;50.774;4.944;2023-01-29T21:24:11;3.30;99.90
14709;DHT22;7445;50.774;4.944;2023-01-29T21:26:40;3.30;99.90
14709;DHT22;7445;50.774;4.944;2023-01-29T21:29:30;3.30;99.90
14709;DHT22;7445;50.774;4.944;2023-01-29T21:31:59;3.30;99.90
14709;DHT22;7445;50.774;4.944;2023-01-29T21:34:24;3.30;99.90
14709;DHT22;7445;50.774;4.944;2023-01-29T21:36:57;3.30;99.90
14709;DHT22;7445;50.774;4.944;2023-01-29T21:39:25;3.30;99.90
14709;DHT22;7445;50.774;4.944;2023-01-29T21:42:04;3.30;99.90
14709;DHT22;7445;50.774;4.944;2023-01-29T21:44:52;3.30;99.90
14709;DHT22;7445;50.774;4.944;2023-01-29T21:47:20;3.30;99.90
14709;DHT22;7445;50.774;4.944;2023-01-29T21:52:27;3.30;99.90
14709;DHT22;7445;50.774;4.944;2023-01-29T21:54:55;3.30;99.90
14709;DHT22;7445;50.774;4.944;2023-01-29T21:57:46;3.40;99.90
14709;DHT22;7445;50.774;4.944;2023-01-29T22:00:20;3.40;99.90
14709;DHT22;7445;50.774;4.944;2023-01-29T22:03:27;3.40;99.90
14709;DHT22;7445;50.774;4.944;2023-01-29T22:06:09;3.40;99.90
14709;DHT22;7445;50.774;4.944;2023-01-29T22:09:04;3.40;99.90
14709;DHT22;7445;50.774;4.944;2023-01-29T22:14:51;3.40;99.90
14709;DHT22;7445;50.774;4.944;2023-01-29T22:17:17;3.40;99.90
14709;DHT22;7445;50.774;4.944;2023-01-29T22:19:46;3.40;99.90
14709;DHT22;7445;50.774;4.944;2023-01-29T22:22:16;3.50;99.90
14709;DHT22;7445;50.774;4.944;2023-01-29T22:24:47;3.50;99.90
14709;DHT22;7445;50.774;4.944;2023-01-29T22:27:30;3.50;99.90
14709;DHT22;7445;50.774;4.944;2023-01-29T22:29:56;3.50;99.90
14709;DHT22;7445;50.774;4.944;2023-01-29T22:32:24;3.50;99.90
14709;DHT22;7445;50.774;4.944;2023-01-29T22:34:50;3.50;99.90
14709;DHT22;7445;50.774;4.944;2023-01-29T22:37:15;3.50;99.90
